sensor_id;sensor_type;location;lat;lon;timestamp;P1;durP1;ratioP1;P2;durP2;ratioP2
11092;SDS011;5600;50.864;6.102;2022-10-17T00:02:06;35.33;;;5.13;;
11092;SDS011;5600;50.864;6.102;2022-10-17T00:05:07;55.47;;;6.93;;
11092;SDS011;5600;50.864;6.102;2022-10-17T00:08:08;35.90;;;5.93;;
11092;SDS011;5600;50.864;6.102;2022-10-17T00:11:14;37.83;;;5.70;;
11092;SDS011;5600;50.864;6.102;2022-10-17T00:14:17;34.40;;;5.63;;
11092;SDS011;5600;50.864;6.102;2022-10-17T00:17:18;38.07;;;5.93;;
11092;SDS011;5600;50.864;6.102;2022-10-17T00:20:18;23.63;;;5.23;;
11092;SDS011;5600;50.864;6.102;2022-10-17T00:23:19;42.20;;;6.17;;
11092;SDS011;5600;50.864;6.102;2022-10-17T00:26:20;32.83;;;5.67;;
11092;SDS011;5600;50.864;6.102;2022-10-17T00:29:21;51.47;;;6.63;;
11092;SDS011;5600;50.864;6.102;2022-10-17T00:32:21;47.10;;;6.60;;
11092;SDS011;5600;50.864;6.102;2022-10-17T00:35:22;48.47;;;6.30;;
11092;SDS011;5600;50.864;6.102;2022-10-17T00:38:22;36.40;;;6.20;;
11092;SDS011;5600;50.864;6.102;2022-10-17T00:41:25;48.77;;;6.93;;
11092;SDS011;5600;50.864;6.102;2022-10-17T00:47:29;22.63;;;5.20;;
11092;SDS011;5600;50.864;6.102;2022-10-17T00:50:30;45.00;;;6.10;;
11092;SDS011;5600;50.864;6.102;2022-10-17T00:53:31;36.63;;;5.77;;
11092;SDS011;5600;50.864;6.102;2022-10-17T00:56:34;54.87;;;6.50;;
11092;SDS011;5600;50.864;6.102;2022-10-17T00:59:35;46.00;;;6.87;;
11092;SDS011;5600;50.864;6.102;2022-10-17T01:02:38;38.40;;;6.43;;
11092;SDS011;5600;50.864;6.102;2022-10-17T01:05:41;38.93;;;6.57;;
11092;SDS011;5600;50.864;6.102;2022-10-17T01:08:42;45.90;;;6.83;;
11092;SDS011;5600;50.864;6.102;2022-10-17T01:15:21;73.17;;;8.33;;
11092;SDS011;5600;50.864;6.102;2022-10-17T01:18:31;35.27;;;5.97;;
11092;SDS011;5600;50.864;6.102;2022-10-17T01:21:54;28.47;;;5.37;;
11092;SDS011;5600;50.864;6.102;2022-10-17T01:35:29;50.70;;;6.90;;
11092;SDS011;5600;50.864;6.102;2022-10-17T01:38:46;32.60;;;5.77;;
11092;SDS011;5600;50.864;6.102;2022-10-17T01:41:59;47.90;;;6.83;;
11092;SDS011;5600;50.864;6.102;2022-10-17T01:45:11;59.00;;;7.73;;
11092;SDS011;5600;50.864;6.102;2022-10-17T01:48:18;44.83;;;6.80;;
11092;SDS011;5600;50.864;6.102;2022-10-17T01:51:27;40.93;;;7.07;;
11092;SDS011;5600;50.864;6.102;2022-10-17T01:54:39;35.27;;;6.47;;
11092;SDS011;5600;50.864;6.102;2022-10-17T01:58:29;40.90;;;6.43;;
11092;SDS011;5600;50.864;6.102;2022-10-17T02:01:06;32.90;;;6.17;;
11092;SDS011;5600;50.864;6.102;2022-10-17T02:04:09;38.43;;;6.40;;
11092;SDS011;5600;50.864;6.102;2022-10-17T02:07:11;38.70;;;6.23;;
11092;SDS011;5600;50.864;6.102;2022-10-17T02:10:15;26.73;;;5.50;;
11092;SDS011;5600;50.864;6.102;2022-10-17T02:20:18;39.53;;;6.97;;
11092;SDS011;5600;50.864;6.102;2022-10-17T02:26:31;36.07;;;5.90;;
11092;SDS011;5600;50.864;6.102;2022-10-17T02:33:30;32.33;;;6.40;;
11092;SDS011;5600;50.864;6.102;2022-10-17T02:36:44;47.43;;;8.50;;
11092;SDS011;5600;50.864;6.102;2022-10-17T02:39:49;47.10;;;7.77;;
11092;SDS011;5600;50.864;6.102;2022-10-17T02:42:50;43.80;;;6.77;;
11092;SDS011;5600;50.864;6.102;2022-10-17T02:45:53;41.77;;;7.07;;
11092;SDS011;5600;50.864;6.102;2022-10-17T02:48:57;39.37;;;6.87;;
11092;SDS011;5600;50.864;6.102;2022-10-17T02:52:22;38.90;;;6.63;;
11092;SDS011;5600;50.864;6.102;2022-10-17T02:55:31;39.40;;;6.83;;
11092;SDS011;5600;50.864;6.102;2022-10-17T02:58:36;45.77;;;7.53;;
11092;SDS011;5600;50.864;6.102;2022-10-17T03:01:38;40.53;;;6.83;;
11092;SDS011;5600;50.864;6.102;2022-10-17T03:04:43;35.88;;;7.13;;
11092;SDS011;5600;50.864;6.102;2022-10-17T03:07:45;41.07;;;6.70;;
11092;SDS011;5600;50.864;6.102;2022-10-17T03:10:46;42.53;;;7.07;;
11092;SDS011;5600;50.864;6.102;2022-10-17T03:13:47;36.22;;;6.80;;
11092;SDS011;5600;50.864;6.102;2022-10-17T03:16:50;40.40;;;6.65;;
11092;SDS011;5600;50.864;6.102;2022-10-17T03:19:51;34.47;;;6.40;;
11092;SDS011;5600;50.864;6.102;2022-10-17T03:22:52;44.92;;;6.95;;
11092;SDS011;5600;50.864;6.102;2022-10-17T03:25:53;49.40;;;6.95;;
11092;SDS011;5600;50.864;6.102;2022-10-17T03:28:54;28.23;;;5.88;;
11092;SDS011;5600;50.864;6.102;2022-10-17T03:31:55;41.58;;;6.57;;
11092;SDS011;5600;50.864;6.102;2022-10-17T03:34:56;29.50;;;5.65;;
11092;SDS011;5600;50.864;6.102;2022-10-17T03:37:57;34.53;;;6.10;;
11092;SDS011;5600;50.864;6.102;2022-10-17T03:41:00;36.42;;;5.88;;
11092;SDS011;5600;50.864;6.102;2022-10-17T03:44:02;41.25;;;6.32;;
11092;SDS011;5600;50.864;6.102;2022-10-17T03:47:04;40.78;;;5.90;;
11092;SDS011;5600;50.864;6.102;2022-10-17T03:50:05;41.13;;;7.00;;
11092;SDS011;5600;50.864;6.102;2022-10-17T03:53:09;39.95;;;6.05;;
11092;SDS011;5600;50.864;6.102;2022-10-17T03:56:18;35.38;;;5.88;;
11092;SDS011;5600;50.864;6.102;2022-10-17T03:59:28;41.50;;;5.80;;
11092;SDS011;5600;50.864;6.102;2022-10-17T04:02:36;33.38;;;5.68;;
11092;SDS011;5600;50.864;6.102;2022-10-17T04:05:37;41.33;;;6.13;;
11092;SDS011;5600;50.864;6.102;2022-10-17T04:08:38;35.17;;;5.78;;
11092;SDS011;5600;50.864;6.102;2022-10-17T04:11:44;33.63;;;5.53;;
11092;SDS011;5600;50.864;6.102;2022-10-17T04:14:45;34.58;;;5.55;;
11092;SDS011;5600;50.864;6.102;2022-10-17T04:17:47;33.00;;;5.30;;
11092;SDS011;5600;50.864;6.102;2022-10-17T04:20:48;37.15;;;5.55;;
11092;SDS011;5600;50.864;6.102;2022-10-17T04:23:53;45.95;;;6.07;;
11092;SDS011;5600;50.864;6.102;2022-10-17T04:27:07;45.45;;;6.18;;
11092;SDS011;5600;50.864;6.102;2022-10-17T04:30:11;45.47;;;6.22;;
11092;SDS011;5600;50.864;6.102;2022-10-17T04:33:12;36.55;;;5.22;;
11092;SDS011;5600;50.864;6.102;2022-10-17T04:36:14;37.15;;;5.40;;
11092;SDS011;5600;50.864;6.102;2022-10-17T04:39:17;44.83;;;6.32;;
11092;SDS011;5600;50.864;6.102;2022-10-17T04:42:19;35.83;;;5.63;;
11092;SDS011;5600;50.864;6.102;2022-10-17T04:45:20;51.45;;;6.10;;
11092;SDS011;5600;50.864;6.102;2022-10-17T04:48:24;48.10;;;6.32;;
11092;SDS011;5600;50.864;6.102;2022-10-17T04:51:25;40.47;;;5.70;;
11092;SDS011;5600;50.864;6.102;2022-10-17T04:54:43;40.58;;;5.93;;
11092;SDS011;5600;50.864;6.102;2022-10-17T04:57:46;38.35;;;6.05;;
11092;SDS011;5600;50.864;6.102;2022-10-17T05:00:53;45.95;;;6.07;;
11092;SDS011;5600;50.864;6.102;2022-10-17T05:03:57;46.97;;;6.07;;
11092;SDS011;5600;50.864;6.102;2022-10-17T05:06:57;43.15;;;5.90;;
11092;SDS011;5600;50.864;6.102;2022-10-17T05:10:16;45.90;;;5.95;;
11092;SDS011;5600;50.864;6.102;2022-10-17T05:13:19;47.03;;;6.10;;
11092;SDS011;5600;50.864;6.102;2022-10-17T05:16:21;45.88;;;6.15;;
11092;SDS011;5600;50.864;6.102;2022-10-17T05:19:22;35.60;;;5.00;;
11092;SDS011;5600;50.864;6.102;2022-10-17T05:22:24;49.13;;;5.90;;
11092;SDS011;5600;50.864;6.102;2022-10-17T05:25:25;50.60;;;6.15;;
11092;SDS011;5600;50.864;6.102;2022-10-17T05:28:26;27.52;;;5.07;;
11092;SDS011;5600;50.864;6.102;2022-10-17T05:31:31;55.65;;;6.57;;
11092;SDS011;5600;50.864;6.102;2022-10-17T05:34:32;47.63;;;5.82;;
11092;SDS011;5600;50.864;6.102;2022-10-17T05:37:34;45.92;;;6.10;;
11092;SDS011;5600;50.864;6.102;2022-10-17T05:40:36;49.60;;;6.32;;
11092;SDS011;5600;50.864;6.102;2022-10-17T05:43:38;63.92;;;6.68;;
11092;SDS011;5600;50.864;6.102;2022-10-17T05:46:39;27.67;;;4.43;;
11092;SDS011;5600;50.864;6.102;2022-10-17T05:49:40;36.85;;;5.50;;
11092;SDS011;5600;50.864;6.102;2022-10-17T05:52:41;42.00;;;5.72;;
11092;SDS011;5600;50.864;6.102;2022-10-17T05:55:53;39.72;;;6.05;;
11092;SDS011;5600;50.864;6.102;2022-10-17T05:58:58;34.40;;;5.15;;
11092;SDS011;5600;50.864;6.102;2022-10-17T06:02:07;39.95;;;5.35;;
11092;SDS011;5600;50.864;6.102;2022-10-17T06:05:09;89.88;;;8.55;;
11092;SDS011;5600;50.864;6.102;2022-10-17T06:08:10;44.00;;;6.18;;
11092;SDS011;5600;50.864;6.102;2022-10-17T06:11:11;43.90;;;5.80;;
11092;SDS011;5600;50.864;6.102;2022-10-17T06:14:13;39.70;;;5.45;;
11092;SDS011;5600;50.864;6.102;2022-10-17T06:17:15;51.53;;;6.35;;
11092;SDS011;5600;50.864;6.102;2022-10-17T06:20:16;38.03;;;5.32;;
11092;SDS011;5600;50.864;6.102;2022-10-17T06:23:18;34.70;;;5.15;;
11092;SDS011;5600;50.864;6.102;2022-10-17T06:26:29;35.63;;;5.32;;
11092;SDS011;5600;50.864;6.102;2022-10-17T06:29:30;51.53;;;6.30;;
11092;SDS011;5600;50.864;6.102;2022-10-17T06:32:31;42.30;;;5.63;;
11092;SDS011;5600;50.864;6.102;2022-10-17T06:35:32;37.55;;;5.47;;
11092;SDS011;5600;50.864;6.102;2022-10-17T06:38:33;47.47;;;5.68;;
11092;SDS011;5600;50.864;6.102;2022-10-17T06:41:37;51.50;;;5.97;;
11092;SDS011;5600;50.864;6.102;2022-10-17T06:44:42;43.35;;;5.78;;
11092;SDS011;5600;50.864;6.102;2022-10-17T06:48:06;43.72;;;5.90;;
11092;SDS011;5600;50.864;6.102;2022-10-17T06:51:30;68.38;;;6.72;;
11092;SDS011;5600;50.864;6.102;2022-10-17T06:54:35;34.17;;;5.80;;
11092;SDS011;5600;50.864;6.102;2022-10-17T06:57:44;44.25;;;6.00;;
11092;SDS011;5600;50.864;6.102;2022-10-17T07:01:05;43.35;;;6.05;;
11092;SDS011;5600;50.864;6.102;2022-10-17T07:04:11;32.38;;;4.93;;
11092;SDS011;5600;50.864;6.102;2022-10-17T07:07:12;23.50;;;4.28;;
11092;SDS011;5600;50.864;6.102;2022-10-17T07:10:13;63.78;;;6.35;;
11092;SDS011;5600;50.864;6.102;2022-10-17T07:13:14;43.40;;;5.45;;
11092;SDS011;5600;50.864;6.102;2022-10-17T07:16:16;36.10;;;5.28;;
11092;SDS011;5600;50.864;6.102;2022-10-17T07:19:19;32.58;;;4.97;;
11092;SDS011;5600;50.864;6.102;2022-10-17T07:22:21;29.80;;;4.53;;
11092;SDS011;5600;50.864;6.102;2022-10-17T07:25:24;42.22;;;5.60;;
11092;SDS011;5600;50.864;6.102;2022-10-17T07:28:29;34.60;;;5.10;;
11092;SDS011;5600;50.864;6.102;2022-10-17T07:31:37;44.50;;;4.95;;
11092;SDS011;5600;50.864;6.102;2022-10-17T07:34:38;50.13;;;5.55;;
11092;SDS011;5600;50.864;6.102;2022-10-17T07:37:40;41.03;;;5.50;;
11092;SDS011;5600;50.864;6.102;2022-10-17T07:40:41;38.47;;;5.13;;
11092;SDS011;5600;50.864;6.102;2022-10-17T07:43:42;39.65;;;5.30;;
11092;SDS011;5600;50.864;6.102;2022-10-17T07:46:43;33.05;;;4.93;;
11092;SDS011;5600;50.864;6.102;2022-10-17T07:49:44;34.65;;;4.70;;
11092;SDS011;5600;50.864;6.102;2022-10-17T07:52:45;34.00;;;4.90;;
11092;SDS011;5600;50.864;6.102;2022-10-17T07:55:45;61.30;;;6.00;;
11092;SDS011;5600;50.864;6.102;2022-10-17T07:58:48;61.42;;;6.05;;
11092;SDS011;5600;50.864;6.102;2022-10-17T08:01:50;99.50;;;8.20;;
11092;SDS011;5600;50.864;6.102;2022-10-17T08:04:54;32.60;;;4.35;;
11092;SDS011;5600;50.864;6.102;2022-10-17T08:07:54;40.08;;;4.63;;
11092;SDS011;5600;50.864;6.102;2022-10-17T08:10:59;37.22;;;4.43;;
11092;SDS011;5600;50.864;6.102;2022-10-17T08:14:02;28.63;;;4.20;;
11092;SDS011;5600;50.864;6.102;2022-10-17T08:17:03;36.75;;;4.53;;
11092;SDS011;5600;50.864;6.102;2022-10-17T08:20:04;37.42;;;4.57;;
11092;SDS011;5600;50.864;6.102;2022-10-17T08:23:06;50.00;;;5.47;;
11092;SDS011;5600;50.864;6.102;2022-10-17T08:26:07;53.90;;;5.50;;
11092;SDS011;5600;50.864;6.102;2022-10-17T08:29:13;36.97;;;4.45;;
11092;SDS011;5600;50.864;6.102;2022-10-17T08:32:14;15.35;;;3.00;;
11092;SDS011;5600;50.864;6.102;2022-10-17T08:35:15;121.13;;;9.10;;
11092;SDS011;5600;50.864;6.102;2022-10-17T08:38:16;97.18;;;8.13;;
11092;SDS011;5600;50.864;6.102;2022-10-17T08:45:16;95.40;;;7.88;;
11092;SDS011;5600;50.864;6.102;2022-10-17T08:48:38;74.40;;;6.85;;
11092;SDS011;5600;50.864;6.102;2022-10-17T08:51:44;39.55;;;4.63;;
11092;SDS011;5600;50.864;6.102;2022-10-17T08:54:50;64.53;;;6.15;;
11092;SDS011;5600;50.864;6.102;2022-10-17T08:57:51;42.10;;;4.82;;
11092;SDS011;5600;50.864;6.102;2022-10-17T09:07:26;41.85;;;4.93;;
11092;SDS011;5600;50.864;6.102;2022-10-17T09:17:21;38.47;;;4.75;;
11092;SDS011;5600;50.864;6.102;2022-10-17T09:20:35;45.75;;;5.13;;
11092;SDS011;5600;50.864;6.102;2022-10-17T09:23:47;25.85;;;3.90;;
11092;SDS011;5600;50.864;6.102;2022-10-17T09:26:53;30.17;;;4.65;;
11092;SDS011;5600;50.864;6.102;2022-10-17T09:36:42;45.20;;;4.80;;
11092;SDS011;5600;50.864;6.102;2022-10-17T09:39:43;43.53;;;5.10;;
11092;SDS011;5600;50.864;6.102;2022-10-17T09:42:44;38.58;;;4.65;;
11092;SDS011;5600;50.864;6.102;2022-10-17T09:45:55;43.50;;;5.45;;
11092;SDS011;5600;50.864;6.102;2022-10-17T09:49:13;38.33;;;4.55;;
11092;SDS011;5600;50.864;6.102;2022-10-17T09:52:20;35.95;;;4.68;;
11092;SDS011;5600;50.864;6.102;2022-10-17T10:01:45;37.67;;;4.43;;
11092;SDS011;5600;50.864;6.102;2022-10-17T10:05:17;42.75;;;5.32;;
11092;SDS011;5600;50.864;6.102;2022-10-17T10:08:19;39.60;;;4.80;;
11092;SDS011;5600;50.864;6.102;2022-10-17T10:11:23;40.45;;;4.72;;
11092;SDS011;5600;50.864;6.102;2022-10-17T10:14:43;32.00;;;4.53;;
11092;SDS011;5600;50.864;6.102;2022-10-17T10:17:45;33.90;;;4.53;;
11092;SDS011;5600;50.864;6.102;2022-10-17T10:20:46;53.67;;;5.47;;
11092;SDS011;5600;50.864;6.102;2022-10-17T10:27:27;35.88;;;4.45;;
11092;SDS011;5600;50.864;6.102;2022-10-17T10:30:29;41.95;;;5.15;;
11092;SDS011;5600;50.864;6.102;2022-10-17T10:33:31;58.13;;;5.78;;
11092;SDS011;5600;50.864;6.102;2022-10-17T10:36:41;39.55;;;5.10;;
11092;SDS011;5600;50.864;6.102;2022-10-17T10:39:52;42.60;;;4.82;;
11092;SDS011;5600;50.864;6.102;2022-10-17T10:42:56;59.15;;;5.82;;
11092;SDS011;5600;50.864;6.102;2022-10-17T10:45:58;60.50;;;5.95;;
11092;SDS011;5600;50.864;6.102;2022-10-17T10:49:01;54.78;;;5.85;;
11092;SDS011;5600;50.864;6.102;2022-10-17T10:52:02;62.20;;;6.43;;
11092;SDS011;5600;50.864;6.102;2022-10-17T10:55:13;53.03;;;5.53;;
11092;SDS011;5600;50.864;6.102;2022-10-17T10:58:54;55.47;;;5.75;;
11092;SDS011;5600;50.864;6.102;2022-10-17T11:05:32;57.63;;;6.20;;
11092;SDS011;5600;50.864;6.102;2022-10-17T11:08:59;109.05;;;8.57;;
11092;SDS011;5600;50.864;6.102;2022-10-17T11:12:27;44.05;;;5.32;;
11092;SDS011;5600;50.864;6.102;2022-10-17T11:18:41;48.47;;;5.22;;
11092;SDS011;5600;50.864;6.102;2022-10-17T11:21:47;60.25;;;5.97;;
11092;SDS011;5600;50.864;6.102;2022-10-17T11:24:55;49.50;;;5.45;;
11092;SDS011;5600;50.864;6.102;2022-10-17T11:27:58;71.70;;;6.30;;
11092;SDS011;5600;50.864;6.102;2022-10-17T11:31:11;48.67;;;5.35;;
11092;SDS011;5600;50.864;6.102;2022-10-17T11:34:15;40.47;;;4.88;;
11092;SDS011;5600;50.864;6.102;2022-10-17T11:37:27;38.28;;;4.50;;
11092;SDS011;5600;50.864;6.102;2022-10-17T11:40:34;52.65;;;4.90;;
11092;SDS011;5600;50.864;6.102;2022-10-17T11:43:44;72.85;;;5.97;;
11092;SDS011;5600;50.864;6.102;2022-10-17T11:47:10;38.20;;;4.30;;
11092;SDS011;5600;50.864;6.102;2022-10-17T11:50:38;53.03;;;4.85;;
11092;SDS011;5600;50.864;6.102;2022-10-17T11:54:16;39.28;;;4.05;;
11092;SDS011;5600;50.864;6.102;2022-10-17T12:13:52;57.67;;;5.55;;
11092;SDS011;5600;50.864;6.102;2022-10-17T12:16:54;37.03;;;4.05;;
11092;SDS011;5600;50.864;6.102;2022-10-17T12:23:25;35.55;;;4.05;;
11092;SDS011;5600;50.864;6.102;2022-10-17T12:26:29;46.97;;;5.57;;
11092;SDS011;5600;50.864;6.102;2022-10-17T12:29:30;54.92;;;5.55;;
11092;SDS011;5600;50.864;6.102;2022-10-17T12:32:32;53.75;;;5.43;;
11092;SDS011;5600;50.864;6.102;2022-10-17T12:35:34;45.88;;;4.97;;
11092;SDS011;5600;50.864;6.102;2022-10-17T12:38:36;42.25;;;4.47;;
11092;SDS011;5600;50.864;6.102;2022-10-17T12:44:38;49.45;;;5.07;;
11092;SDS011;5600;50.864;6.102;2022-10-17T12:47:38;46.35;;;4.88;;
11092;SDS011;5600;50.864;6.102;2022-10-17T12:54:07;71.93;;;6.25;;
11092;SDS011;5600;50.864;6.102;2022-10-17T12:57:23;35.72;;;4.03;;
11092;SDS011;5600;50.864;6.102;2022-10-17T13:00:35;40.53;;;4.63;;
11092;SDS011;5600;50.864;6.102;2022-10-17T13:03:43;38.60;;;4.22;;
11092;SDS011;5600;50.864;6.102;2022-10-17T13:06:48;50.72;;;5.10;;
11092;SDS011;5600;50.864;6.102;2022-10-17T13:09:53;42.85;;;4.55;;
11092;SDS011;5600;50.864;6.102;2022-10-17T13:19:40;41.95;;;4.60;;
11092;SDS011;5600;50.864;6.102;2022-10-17T13:22:43;66.72;;;6.00;;
11092;SDS011;5600;50.864;6.102;2022-10-17T13:25:45;42.15;;;4.40;;
11092;SDS011;5600;50.864;6.102;2022-10-17T13:29:31;59.10;;;5.50;;
11092;SDS011;5600;50.864;6.102;2022-10-17T13:32:11;33.92;;;4.53;;
11092;SDS011;5600;50.864;6.102;2022-10-17T13:35:13;70.47;;;6.00;;
11092;SDS011;5600;50.864;6.102;2022-10-17T13:38:19;35.05;;;4.05;;
11092;SDS011;5600;50.864;6.102;2022-10-17T13:41:27;65.47;;;6.22;;
11092;SDS011;5600;50.864;6.102;2022-10-17T13:44:31;42.92;;;4.75;;
11092;SDS011;5600;50.864;6.102;2022-10-17T13:47:35;53.03;;;5.32;;
11092;SDS011;5600;50.864;6.102;2022-10-17T13:50:39;43.40;;;5.10;;
11092;SDS011;5600;50.864;6.102;2022-10-17T13:53:40;41.22;;;4.53;;
11092;SDS011;5600;50.864;6.102;2022-10-17T13:56:43;45.72;;;5.03;;
11092;SDS011;5600;50.864;6.102;2022-10-17T13:59:45;32.67;;;4.10;;
11092;SDS011;5600;50.864;6.102;2022-10-17T14:02:50;40.15;;;4.50;;
11092;SDS011;5600;50.864;6.102;2022-10-17T14:09:04;34.25;;;4.38;;
11092;SDS011;5600;50.864;6.102;2022-10-17T14:12:15;62.13;;;5.50;;
11092;SDS011;5600;50.864;6.102;2022-10-17T14:15:20;49.33;;;5.10;;
11092;SDS011;5600;50.864;6.102;2022-10-17T14:18:27;35.60;;;4.22;;
11092;SDS011;5600;50.864;6.102;2022-10-17T14:21:31;49.97;;;5.07;;
11092;SDS011;5600;50.864;6.102;2022-10-17T14:24:32;45.80;;;5.22;;
11092;SDS011;5600;50.864;6.102;2022-10-17T14:27:35;41.13;;;4.82;;
11092;SDS011;5600;50.864;6.102;2022-10-17T14:30:39;45.65;;;4.85;;
11092;SDS011;5600;50.864;6.102;2022-10-17T14:33:45;60.80;;;6.22;;
11092;SDS011;5600;50.864;6.102;2022-10-17T14:36:47;42.60;;;4.80;;
11092;SDS011;5600;50.864;6.102;2022-10-17T14:39:51;43.88;;;5.60;;
11092;SDS011;5600;50.864;6.102;2022-10-17T14:42:55;59.88;;;6.03;;
11092;SDS011;5600;50.864;6.102;2022-10-17T14:45:57;58.58;;;6.15;;
11092;SDS011;5600;50.864;6.102;2022-10-17T14:49:05;38.15;;;4.75;;
11092;SDS011;5600;50.864;6.102;2022-10-17T14:55:23;45.90;;;5.75;;
11092;SDS011;5600;50.864;6.102;2022-10-17T14:58:27;67.30;;;6.45;;
11092;SDS011;5600;50.864;6.102;2022-10-17T15:01:33;43.25;;;5.55;;
11092;SDS011;5600;50.864;6.102;2022-10-17T15:04:34;33.42;;;4.80;;
11092;SDS011;5600;50.864;6.102;2022-10-17T15:07:34;40.63;;;5.35;;
11092;SDS011;5600;50.864;6.102;2022-10-17T15:10:36;41.28;;;5.38;;
11092;SDS011;5600;50.864;6.102;2022-10-17T15:13:40;40.53;;;5.88;;
11092;SDS011;5600;50.864;6.102;2022-10-17T15:16:41;58.00;;;7.20;;
11092;SDS011;5600;50.864;6.102;2022-10-17T15:19:42;42.42;;;5.93;;
11092;SDS011;5600;50.864;6.102;2022-10-17T15:22:43;41.42;;;6.00;;
11092;SDS011;5600;50.864;6.102;2022-10-17T15:25:44;45.72;;;7.30;;
11092;SDS011;5600;50.864;6.102;2022-10-17T15:28:45;43.00;;;6.65;;
11092;SDS011;5600;50.864;6.102;2022-10-17T15:31:46;41.13;;;5.90;;
11092;SDS011;5600;50.864;6.102;2022-10-17T15:34:47;66.50;;;8.13;;
11092;SDS011;5600;50.864;6.102;2022-10-17T15:37:48;37.95;;;7.30;;
11092;SDS011;5600;50.864;6.102;2022-10-17T15:40:49;37.60;;;6.75;;
11092;SDS011;5600;50.864;6.102;2022-10-17T15:43:51;48.63;;;7.60;;
11092;SDS011;5600;50.864;6.102;2022-10-17T15:46:52;45.55;;;7.97;;
11092;SDS011;5600;50.864;6.102;2022-10-17T15:49:54;51.40;;;7.90;;
11092;SDS011;5600;50.864;6.102;2022-10-17T15:52:56;46.65;;;7.38;;
11092;SDS011;5600;50.864;6.102;2022-10-17T15:55:57;44.65;;;6.32;;
11092;SDS011;5600;50.864;6.102;2022-10-17T15:58:58;44.45;;;6.45;;
11092;SDS011;5600;50.864;6.102;2022-10-17T16:02:10;46.33;;;6.18;;
11092;SDS011;5600;50.864;6.102;2022-10-17T16:05:14;43.22;;;6.43;;
11092;SDS011;5600;50.864;6.102;2022-10-17T16:08:17;36.78;;;6.05;;
11092;SDS011;5600;50.864;6.102;2022-10-17T16:14:31;43.20;;;5.68;;
11092;SDS011;5600;50.864;6.102;2022-10-17T16:17:32;40.80;;;6.05;;
11092;SDS011;5600;50.864;6.102;2022-10-17T16:20:33;35.83;;;4.97;;
11092;SDS011;5600;50.864;6.102;2022-10-17T16:23:33;36.70;;;6.30;;
11092;SDS011;5600;50.864;6.102;2022-10-17T16:26:34;39.10;;;7.38;;
11092;SDS011;5600;50.864;6.102;2022-10-17T16:29:35;42.08;;;7.13;;
11092;SDS011;5600;50.864;6.102;2022-10-17T16:32:36;37.58;;;7.50;;
11092;SDS011;5600;50.864;6.102;2022-10-17T16:35:36;48.50;;;7.65;;
11092;SDS011;5600;50.864;6.102;2022-10-17T16:38:37;40.40;;;7.75;;
11092;SDS011;5600;50.864;6.102;2022-10-17T16:41:38;39.22;;;6.22;;
11092;SDS011;5600;50.864;6.102;2022-10-17T16:44:38;19.98;;;5.30;;
11092;SDS011;5600;50.864;6.102;2022-10-17T16:47:39;32.88;;;5.68;;
11092;SDS011;5600;50.864;6.102;2022-10-17T16:50:40;50.97;;;7.63;;
11092;SDS011;5600;50.864;6.102;2022-10-17T16:53:40;28.80;;;6.95;;
11092;SDS011;5600;50.864;6.102;2022-10-17T16:56:44;47.58;;;7.80;;
11092;SDS011;5600;50.864;6.102;2022-10-17T16:59:44;42.20;;;11.25;;
11092;SDS011;5600;50.864;6.102;2022-10-17T17:02:46;43.47;;;14.40;;
11092;SDS011;5600;50.864;6.102;2022-10-17T17:05:50;39.45;;;10.90;;
11092;SDS011;5600;50.864;6.102;2022-10-17T17:08:51;78.68;;;33.20;;
11092;SDS011;5600;50.864;6.102;2022-10-17T17:11:53;73.00;;;25.23;;
11092;SDS011;5600;50.864;6.102;2022-10-17T17:14:53;64.93;;;19.05;;
11092;SDS011;5600;50.864;6.102;2022-10-17T17:17:54;48.45;;;17.45;;
11092;SDS011;5600;50.864;6.102;2022-10-17T17:20:58;53.97;;;11.23;;
11092;SDS011;5600;50.864;6.102;2022-10-17T17:24:01;59.10;;;12.65;;
11092;SDS011;5600;50.864;6.102;2022-10-17T17:27:03;47.63;;;9.65;;
11092;SDS011;5600;50.864;6.102;2022-10-17T17:30:03;43.45;;;10.88;;
11092;SDS011;5600;50.864;6.102;2022-10-17T17:33:04;25.85;;;7.47;;
11092;SDS011;5600;50.864;6.102;2022-10-17T17:36:06;37.47;;;7.50;;
11092;SDS011;5600;50.864;6.102;2022-10-17T17:39:09;26.27;;;6.18;;
11092;SDS011;5600;50.864;6.102;2022-10-17T17:42:11;34.03;;;6.88;;
11092;SDS011;5600;50.864;6.102;2022-10-17T17:45:12;85.38;;;8.48;;
11092;SDS011;5600;50.864;6.102;2022-10-17T17:48:13;39.10;;;5.30;;
11092;SDS011;5600;50.864;6.102;2022-10-17T17:51:15;41.63;;;5.82;;
11092;SDS011;5600;50.864;6.102;2022-10-17T17:54:17;33.55;;;5.32;;
11092;SDS011;5600;50.864;6.102;2022-10-17T17:57:18;38.15;;;5.80;;
11092;SDS011;5600;50.864;6.102;2022-10-17T18:00:18;36.92;;;5.18;;
11092;SDS011;5600;50.864;6.102;2022-10-17T18:03:19;42.50;;;5.78;;
11092;SDS011;5600;50.864;6.102;2022-10-17T18:06:20;33.63;;;4.93;;
11092;SDS011;5600;50.864;6.102;2022-10-17T18:09:21;39.80;;;4.85;;
11092;SDS011;5600;50.864;6.102;2022-10-17T18:12:22;46.40;;;4.93;;
11092;SDS011;5600;50.864;6.102;2022-10-17T18:15:23;50.17;;;4.97;;
11092;SDS011;5600;50.864;6.102;2022-10-17T18:18:24;39.35;;;4.20;;
11092;SDS011;5600;50.864;6.102;2022-10-17T18:21:26;34.20;;;3.50;;
11092;SDS011;5600;50.864;6.102;2022-10-17T18:24:27;39.28;;;4.55;;
11092;SDS011;5600;50.864;6.102;2022-10-17T18:27:27;45.88;;;5.30;;
11092;SDS011;5600;50.864;6.102;2022-10-17T18:30:28;48.78;;;5.38;;
11092;SDS011;5600;50.864;6.102;2022-10-17T18:33:29;36.72;;;4.60;;
11092;SDS011;5600;50.864;6.102;2022-10-17T18:36:30;34.72;;;4.47;;
11092;SDS011;5600;50.864;6.102;2022-10-17T18:39:32;22.08;;;3.55;;
11092;SDS011;5600;50.864;6.102;2022-10-17T18:42:33;29.92;;;3.95;;
11092;SDS011;5600;50.864;6.102;2022-10-17T18:45:34;37.38;;;4.80;;
11092;SDS011;5600;50.864;6.102;2022-10-17T18:48:37;44.38;;;4.80;;
11092;SDS011;5600;50.864;6.102;2022-10-17T18:51:39;39.13;;;5.05;;
11092;SDS011;5600;50.864;6.102;2022-10-17T18:54:40;34.88;;;4.32;;
11092;SDS011;5600;50.864;6.102;2022-10-17T18:57:41;29.45;;;3.75;;
11092;SDS011;5600;50.864;6.102;2022-10-17T19:00:42;30.52;;;4.18;;
11092;SDS011;5600;50.864;6.102;2022-10-17T19:03:43;42.95;;;5.00;;
11092;SDS011;5600;50.864;6.102;2022-10-17T19:06:46;40.25;;;4.95;;
11092;SDS011;5600;50.864;6.102;2022-10-17T19:09:47;39.70;;;5.00;;
11092;SDS011;5600;50.864;6.102;2022-10-17T19:12:48;40.53;;;5.03;;
11092;SDS011;5600;50.864;6.102;2022-10-17T19:15:49;36.55;;;4.68;;
11092;SDS011;5600;50.864;6.102;2022-10-17T19:18:50;37.17;;;4.65;;
11092;SDS011;5600;50.864;6.102;2022-10-17T19:21:52;40.40;;;4.50;;
11092;SDS011;5600;50.864;6.102;2022-10-17T19:24:53;28.98;;;3.97;;
11092;SDS011;5600;50.864;6.102;2022-10-17T19:27:54;43.42;;;4.78;;
11092;SDS011;5600;50.864;6.102;2022-10-17T19:30:55;26.30;;;3.55;;
11092;SDS011;5600;50.864;6.102;2022-10-17T19:33:56;41.88;;;4.15;;
11092;SDS011;5600;50.864;6.102;2022-10-17T19:36:57;51.67;;;5.13;;
11092;SDS011;5600;50.864;6.102;2022-10-17T19:39:58;36.38;;;4.53;;
11092;SDS011;5600;50.864;6.102;2022-10-17T19:42:58;56.90;;;5.60;;
11092;SDS011;5600;50.864;6.102;2022-10-17T19:45:59;30.55;;;4.32;;
11092;SDS011;5600;50.864;6.102;2022-10-17T19:49:01;44.17;;;4.85;;
11092;SDS011;5600;50.864;6.102;2022-10-17T19:52:03;32.53;;;4.22;;
11092;SDS011;5600;50.864;6.102;2022-10-17T19:55:04;48.33;;;5.13;;
11092;SDS011;5600;50.864;6.102;2022-10-17T19:58:05;42.83;;;5.00;;
11092;SDS011;5600;50.864;6.102;2022-10-17T20:01:05;34.93;;;4.47;;
11092;SDS011;5600;50.864;6.102;2022-10-17T20:04:06;29.70;;;3.83;;
11092;SDS011;5600;50.864;6.102;2022-10-17T20:07:08;25.50;;;3.58;;
11092;SDS011;5600;50.864;6.102;2022-10-17T20:10:09;31.45;;;3.72;;
11092;SDS011;5600;50.864;6.102;2022-10-17T20:13:09;18.05;;;2.70;;
11092;SDS011;5600;50.864;6.102;2022-10-17T20:16:11;29.60;;;3.50;;
11092;SDS011;5600;50.864;6.102;2022-10-17T20:19:13;24.42;;;3.78;;
11092;SDS011;5600;50.864;6.102;2022-10-17T20:22:14;35.55;;;3.95;;
11092;SDS011;5600;50.864;6.102;2022-10-17T20:25:15;60.75;;;5.47;;